<?xml version="1.0" encoding="UTF-8" standalone="no" ?>
<gpx xmlns="http://www.topografix.com/GPX/1/1" xmlns:xsi="http://www.w3.org/2001/XMLSchema-instance" xsi:schemaLocation="http://www.topografix.com/GPX/1/1 http://www.topografix.com/GPX/1/1/gpx.xsd" version="1.1" creator="VisuGPX - https://www.visugpx.com">
  <metadata>
    <name>l\'Orne au Nord de Thury-Harcourt.</name>
    <desc><![CDATA[l\'Orne au Nord de Thury-Harcourt.]]></desc>
  </metadata>
  <trk>
    <name><![CDATA[La Vallée de l'Orne]]></name>
    <trkseg>
      <trkpt lat="49.0331" lon="-0.46744">
        <ele>26</ele>
        <time>2015-11-26T09:01:34+01:00</time>
      </trkpt>
      <trkpt lat="49.03263" lon="-0.46755">
        <ele>29</ele>
        <time>2015-11-26T09:01:39+01:00</time>
      </trkpt>
      <trkpt lat="49.03213" lon="-0.46755">
        <ele>28</ele>
        <time>2015-11-26T09:01:44+01:00</time>
      </trkpt>
      <trkpt lat="49.03109" lon="-0.46755">
        <ele>31</ele>
        <time>2015-11-26T09:01:49+01:00</time>
      </trkpt>
      <trkpt lat="49.03069" lon="-0.46755">
        <ele>33</ele>
        <time>2015-11-26T09:01:54+01:00</time>
      </trkpt>
      <trkpt lat="49.03015" lon="-0.46786">
        <ele>38</ele>
        <time>2015-11-26T09:01:59+01:00</time>
      </trkpt>
      <trkpt lat="49.02796" lon="-0.46776">
        <ele>34</ele>
        <time>2015-11-26T09:02:04+01:00</time>
      </trkpt>
      <trkpt lat="49.02742" lon="-0.46776">
        <ele>33</ele>
        <time>2015-11-26T09:02:09+01:00</time>
      </trkpt>
      <trkpt lat="49.02638" lon="-0.46776">
        <ele>34</ele>
        <time>2015-11-26T09:02:14+01:00</time>
      </trkpt>
      <trkpt lat="49.02625" lon="-0.46781">
        <ele>35</ele>
        <time>2015-11-26T09:02:19+01:00</time>
      </trkpt>
      <trkpt lat="49.02569" lon="-0.4688">
        <ele>45</ele>
        <time>2015-11-26T09:02:24+01:00</time>
      </trkpt>
      <trkpt lat="49.02542" lon="-0.4688">
        <ele>44</ele>
        <time>2015-11-26T09:02:29+01:00</time>
      </trkpt>
      <trkpt lat="49.02505" lon="-0.46825">
        <ele>39</ele>
        <time>2015-11-26T09:02:34+01:00</time>
      </trkpt>
      <trkpt lat="49.02438" lon="-0.46781">
        <ele>39</ele>
        <time>2015-11-26T09:02:39+01:00</time>
      </trkpt>
      <trkpt lat="49.0246" lon="-0.46702">
        <ele>29</ele>
        <time>2015-11-26T09:02:44+01:00</time>
      </trkpt>
      <trkpt lat="49.02444" lon="-0.46684">
        <ele>27</ele>
        <time>2015-11-26T09:02:49+01:00</time>
      </trkpt>
      <trkpt lat="49.02393" lon="-0.46671">
        <ele>25</ele>
        <time>2015-11-26T09:02:54+01:00</time>
      </trkpt>
      <trkpt lat="49.02341" lon="-0.46689">
        <ele>26</ele>
        <time>2015-11-26T09:02:59+01:00</time>
      </trkpt>
      <trkpt lat="49.02323" lon="-0.467">
        <ele>27</ele>
        <time>2015-11-26T09:03:04+01:00</time>
      </trkpt>
      <trkpt lat="49.02296" lon="-0.46708">
        <ele>29</ele>
        <time>2015-11-26T09:03:09+01:00</time>
      </trkpt>
      <trkpt lat="49.02271" lon="-0.46687">
        <ele>26</ele>
        <time>2015-11-26T09:03:14+01:00</time>
      </trkpt>
      <trkpt lat="49.02131" lon="-0.46739">
        <ele>33</ele>
        <time>2015-11-26T09:03:19+01:00</time>
      </trkpt>
      <trkpt lat="49.02108" lon="-0.46752">
        <ele>32</ele>
        <time>2015-11-26T09:03:24+01:00</time>
      </trkpt>
      <trkpt lat="49.02092" lon="-0.46783">
        <ele>37</ele>
        <time>2015-11-26T09:03:29+01:00</time>
      </trkpt>
      <trkpt lat="49.02057" lon="-0.46799">
        <ele>36</ele>
        <time>2015-11-26T09:03:34+01:00</time>
      </trkpt>
      <trkpt lat="49.02034" lon="-0.46825">
        <ele>37</ele>
        <time>2015-11-26T09:03:39+01:00</time>
      </trkpt>
      <trkpt lat="49.01998" lon="-0.46864">
        <ele>39</ele>
        <time>2015-11-26T09:03:44+01:00</time>
      </trkpt>
      <trkpt lat="49.01975" lon="-0.46883">
        <ele>39</ele>
        <time>2015-11-26T09:03:49+01:00</time>
      </trkpt>
      <trkpt lat="49.01921" lon="-0.46903">
        <ele>34</ele>
        <time>2015-11-26T09:03:54+01:00</time>
      </trkpt>
      <trkpt lat="49.01894" lon="-0.46935">
        <ele>34</ele>
        <time>2015-11-26T09:03:59+01:00</time>
      </trkpt>
      <trkpt lat="49.01892" lon="-0.46966">
        <ele>37</ele>
        <time>2015-11-26T09:04:04+01:00</time>
      </trkpt>
      <trkpt lat="49.01869" lon="-0.4693">
        <ele>29</ele>
        <time>2015-11-26T09:04:09+01:00</time>
      </trkpt>
      <trkpt lat="49.01824" lon="-0.46924">
        <ele>23</ele>
        <time>2015-11-26T09:04:14+01:00</time>
      </trkpt>
      <trkpt lat="49.01795" lon="-0.4693">
        <ele>22</ele>
        <time>2015-11-26T09:04:19+01:00</time>
      </trkpt>
      <trkpt lat="49.01763" lon="-0.4695">
        <ele>22</ele>
        <time>2015-11-26T09:04:24+01:00</time>
      </trkpt>
      <trkpt lat="49.0173" lon="-0.46966">
        <ele>22</ele>
        <time>2015-11-26T09:04:29+01:00</time>
      </trkpt>
      <trkpt lat="49.01676" lon="-0.47052">
        <ele>30</ele>
        <time>2015-11-26T09:04:34+01:00</time>
      </trkpt>
      <trkpt lat="49.01615" lon="-0.47117">
        <ele>34</ele>
        <time>2015-11-26T09:04:39+01:00</time>
      </trkpt>
      <trkpt lat="49.01576" lon="-0.47164">
        <ele>33</ele>
        <time>2015-11-26T09:04:44+01:00</time>
      </trkpt>
      <trkpt lat="49.01517" lon="-0.4724">
        <ele>34</ele>
        <time>2015-11-26T09:04:49+01:00</time>
      </trkpt>
      <trkpt lat="49.01488" lon="-0.47282">
        <ele>36</ele>
        <time>2015-11-26T09:04:54+01:00</time>
      </trkpt>
      <trkpt lat="49.01463" lon="-0.47345">
        <ele>42</ele>
        <time>2015-11-26T09:04:59+01:00</time>
      </trkpt>
      <trkpt lat="49.01427" lon="-0.4741">
        <ele>42</ele>
        <time>2015-11-26T09:05:04+01:00</time>
      </trkpt>
      <trkpt lat="49.01405" lon="-0.47433">
        <ele>43</ele>
        <time>2015-11-26T09:05:09+01:00</time>
      </trkpt>
      <trkpt lat="49.01328" lon="-0.47488">
        <ele>38</ele>
        <time>2015-11-26T09:05:14+01:00</time>
      </trkpt>
      <trkpt lat="49.01272" lon="-0.47522">
        <ele>32</ele>
        <time>2015-11-26T09:05:19+01:00</time>
      </trkpt>
      <trkpt lat="49.0126" lon="-0.47728">
        <ele>36</ele>
        <time>2015-11-26T09:05:24+01:00</time>
      </trkpt>
      <trkpt lat="49.01261" lon="-0.47765">
        <ele>37</ele>
        <time>2015-11-26T09:05:29+01:00</time>
      </trkpt>
      <trkpt lat="49.01319" lon="-0.47856">
        <ele>44</ele>
        <time>2015-11-26T09:05:34+01:00</time>
      </trkpt>
      <trkpt lat="49.01349" lon="-0.47937">
        <ele>48</ele>
        <time>2015-11-26T09:05:39+01:00</time>
      </trkpt>
      <trkpt lat="49.01373" lon="-0.47974">
        <ele>53</ele>
        <time>2015-11-26T09:05:44+01:00</time>
      </trkpt>
      <trkpt lat="49.01389" lon="-0.48007">
        <ele>54</ele>
        <time>2015-11-26T09:05:49+01:00</time>
      </trkpt>
      <trkpt lat="49.014" lon="-0.48083">
        <ele>54</ele>
        <time>2015-11-26T09:05:54+01:00</time>
      </trkpt>
      <trkpt lat="49.01425" lon="-0.48148">
        <ele>54</ele>
        <time>2015-11-26T09:05:59+01:00</time>
      </trkpt>
      <trkpt lat="49.01403" lon="-0.48232">
        <ele>60</ele>
        <time>2015-11-26T09:06:04+01:00</time>
      </trkpt>
      <trkpt lat="49.01385" lon="-0.48381">
        <ele>67</ele>
        <time>2015-11-26T09:06:09+01:00</time>
      </trkpt>
      <trkpt lat="49.01375" lon="-0.4859">
        <ele>74</ele>
        <time>2015-11-26T09:06:14+01:00</time>
      </trkpt>
      <trkpt lat="49.01373" lon="-0.48691">
        <ele>74</ele>
        <time>2015-11-26T09:06:19+01:00</time>
      </trkpt>
      <trkpt lat="49.01382" lon="-0.48754">
        <ele>76</ele>
        <time>2015-11-26T09:06:24+01:00</time>
      </trkpt>
      <trkpt lat="49.014" lon="-0.48822">
        <ele>77</ele>
        <time>2015-11-26T09:06:29+01:00</time>
      </trkpt>
      <trkpt lat="49.01416" lon="-0.48887">
        <ele>77</ele>
        <time>2015-11-26T09:06:34+01:00</time>
      </trkpt>
      <trkpt lat="49.01412" lon="-0.48926">
        <ele>77</ele>
        <time>2015-11-26T09:06:39+01:00</time>
      </trkpt>
      <trkpt lat="49.01432" lon="-0.49044">
        <ele>82</ele>
        <time>2015-11-26T09:06:44+01:00</time>
      </trkpt>
      <trkpt lat="49.01432" lon="-0.49145">
        <ele>84</ele>
        <time>2015-11-26T09:06:49+01:00</time>
      </trkpt>
      <trkpt lat="49.01412" lon="-0.49216">
        <ele>84</ele>
        <time>2015-11-26T09:06:54+01:00</time>
      </trkpt>
      <trkpt lat="49.01418" lon="-0.49305">
        <ele>86</ele>
        <time>2015-11-26T09:06:59+01:00</time>
      </trkpt>
      <trkpt lat="49.01418" lon="-0.49427">
        <ele>87</ele>
        <time>2015-11-26T09:07:04+01:00</time>
      </trkpt>
      <trkpt lat="49.01391" lon="-0.49477">
        <ele>90</ele>
        <time>2015-11-26T09:07:09+01:00</time>
      </trkpt>
      <trkpt lat="49.01376" lon="-0.49634">
        <ele>96</ele>
        <time>2015-11-26T09:07:14+01:00</time>
      </trkpt>
      <trkpt lat="49.01328" lon="-0.49714">
        <ele>94</ele>
        <time>2015-11-26T09:07:19+01:00</time>
      </trkpt>
      <trkpt lat="49.01328" lon="-0.4967">
        <ele>94</ele>
        <time>2015-11-26T09:07:24+01:00</time>
      </trkpt>
      <trkpt lat="49.01339" lon="-0.49597">
        <ele>93</ele>
        <time>2015-11-26T09:07:29+01:00</time>
      </trkpt>
      <trkpt lat="49.01337" lon="-0.49542">
        <ele>93</ele>
        <time>2015-11-26T09:07:34+01:00</time>
      </trkpt>
      <trkpt lat="49.0129" lon="-0.49461">
        <ele>98</ele>
        <time>2015-11-26T09:07:39+01:00</time>
      </trkpt>
      <trkpt lat="49.01224" lon="-0.49333">
        <ele>99</ele>
        <time>2015-11-26T09:07:44+01:00</time>
      </trkpt>
      <trkpt lat="49.01181" lon="-0.49263">
        <ele>104</ele>
        <time>2015-11-26T09:07:49+01:00</time>
      </trkpt>
      <trkpt lat="49.01134" lon="-0.492">
        <ele>107</ele>
        <time>2015-11-26T09:07:54+01:00</time>
      </trkpt>
      <trkpt lat="49.01051" lon="-0.49156">
        <ele>115</ele>
        <time>2015-11-26T09:07:59+01:00</time>
      </trkpt>
      <trkpt lat="49.00985" lon="-0.49119">
        <ele>120</ele>
        <time>2015-11-26T09:08:04+01:00</time>
      </trkpt>
      <trkpt lat="49.00963" lon="-0.49104">
        <ele>121</ele>
        <time>2015-11-26T09:08:09+01:00</time>
      </trkpt>
      <trkpt lat="49.00927" lon="-0.49075">
        <ele>124</ele>
        <time>2015-11-26T09:08:14+01:00</time>
      </trkpt>
      <trkpt lat="49.00868" lon="-0.49067">
        <ele>127</ele>
        <time>2015-11-26T09:08:19+01:00</time>
      </trkpt>
      <trkpt lat="49.00672" lon="-0.49049">
        <ele>134</ele>
        <time>2015-11-26T09:08:24+01:00</time>
      </trkpt>
      <trkpt lat="49.0062" lon="-0.49041">
        <ele>134</ele>
        <time>2015-11-26T09:08:29+01:00</time>
      </trkpt>
      <trkpt lat="49.00548" lon="-0.49015">
        <ele>133</ele>
        <time>2015-11-26T09:08:34+01:00</time>
      </trkpt>
      <trkpt lat="49.00498" lon="-0.48976">
        <ele>132</ele>
        <time>2015-11-26T09:08:39+01:00</time>
      </trkpt>
      <trkpt lat="49.00496" lon="-0.48955">
        <ele>132</ele>
        <time>2015-11-26T09:08:44+01:00</time>
      </trkpt>
      <trkpt lat="49.0048" lon="-0.48963">
        <ele>131</ele>
        <time>2015-11-26T09:08:49+01:00</time>
      </trkpt>
      <trkpt lat="49.00464" lon="-0.48929">
        <ele>130</ele>
        <time>2015-11-26T09:08:54+01:00</time>
      </trkpt>
      <trkpt lat="49.00424" lon="-0.48871">
        <ele>129</ele>
        <time>2015-11-26T09:08:59+01:00</time>
      </trkpt>
      <trkpt lat="49.00388" lon="-0.48824">
        <ele>129</ele>
        <time>2015-11-26T09:09:04+01:00</time>
      </trkpt>
      <trkpt lat="49.00351" lon="-0.48777">
        <ele>128</ele>
        <time>2015-11-26T09:09:09+01:00</time>
      </trkpt>
      <trkpt lat="49.00288" lon="-0.48744">
        <ele>128</ele>
        <time>2015-11-26T09:09:14+01:00</time>
      </trkpt>
      <trkpt lat="49.00203" lon="-0.48728">
        <ele>126</ele>
        <time>2015-11-26T09:09:19+01:00</time>
      </trkpt>
      <trkpt lat="49.00167" lon="-0.48725">
        <ele>125</ele>
        <time>2015-11-26T09:09:24+01:00</time>
      </trkpt>
      <trkpt lat="49.00085" lon="-0.48683">
        <ele>121</ele>
        <time>2015-11-26T09:09:29+01:00</time>
      </trkpt>
      <trkpt lat="48.99988" lon="-0.48636">
        <ele>111</ele>
        <time>2015-11-26T09:09:34+01:00</time>
      </trkpt>
      <trkpt lat="48.99912" lon="-0.48629">
        <ele>101</ele>
        <time>2015-11-26T09:09:39+01:00</time>
      </trkpt>
      <trkpt lat="48.99873" lon="-0.48657">
        <ele>94</ele>
        <time>2015-11-26T09:09:44+01:00</time>
      </trkpt>
      <trkpt lat="48.99801" lon="-0.48757">
        <ele>79</ele>
        <time>2015-11-26T09:09:49+01:00</time>
      </trkpt>
      <trkpt lat="48.99788" lon="-0.48798">
        <ele>72</ele>
        <time>2015-11-26T09:09:54+01:00</time>
      </trkpt>
      <trkpt lat="48.99774" lon="-0.48817">
        <ele>67</ele>
        <time>2015-11-26T09:09:59+01:00</time>
      </trkpt>
      <trkpt lat="48.99747" lon="-0.48804">
        <ele>64</ele>
        <time>2015-11-26T09:10:04+01:00</time>
      </trkpt>
      <trkpt lat="48.99731" lon="-0.48764">
        <ele>63</ele>
        <time>2015-11-26T09:10:09+01:00</time>
      </trkpt>
      <trkpt lat="48.99716" lon="-0.48699">
        <ele>58</ele>
        <time>2015-11-26T09:10:14+01:00</time>
      </trkpt>
      <trkpt lat="48.99693" lon="-0.48652">
        <ele>49</ele>
        <time>2015-11-26T09:10:19+01:00</time>
      </trkpt>
      <trkpt lat="48.99603" lon="-0.48644">
        <ele>29</ele>
        <time>2015-11-26T09:10:24+01:00</time>
      </trkpt>
      <trkpt lat="48.99553" lon="-0.48689">
        <ele>26</ele>
        <time>2015-11-26T09:10:29+01:00</time>
      </trkpt>
      <trkpt lat="48.99508" lon="-0.48715">
        <ele>27</ele>
        <time>2015-11-26T09:10:34+01:00</time>
      </trkpt>
      <trkpt lat="48.9949" lon="-0.48717">
        <ele>29</ele>
        <time>2015-11-26T09:10:39+01:00</time>
      </trkpt>
      <trkpt lat="48.9944" lon="-0.48631">
        <ele>35</ele>
        <time>2015-11-26T09:10:44+01:00</time>
      </trkpt>
      <trkpt lat="48.99274" lon="-0.48556">
        <ele>25</ele>
        <time>2015-11-26T09:10:49+01:00</time>
      </trkpt>
      <trkpt lat="48.99226" lon="-0.48545">
        <ele>24</ele>
        <time>2015-11-26T09:10:54+01:00</time>
      </trkpt>
      <trkpt lat="48.99161" lon="-0.48462">
        <ele>27</ele>
        <time>2015-11-26T09:10:59+01:00</time>
      </trkpt>
      <trkpt lat="48.9914" lon="-0.48399">
        <ele>27</ele>
        <time>2015-11-26T09:11:04+01:00</time>
      </trkpt>
      <trkpt lat="48.99102" lon="-0.48355">
        <ele>26</ele>
        <time>2015-11-26T09:11:09+01:00</time>
      </trkpt>
      <trkpt lat="48.99037" lon="-0.48336">
        <ele>27</ele>
        <time>2015-11-26T09:11:14+01:00</time>
      </trkpt>
      <trkpt lat="48.99014" lon="-0.48339">
        <ele>29</ele>
        <time>2015-11-26T09:11:19+01:00</time>
      </trkpt>
      <trkpt lat="48.98994" lon="-0.48326">
        <ele>28</ele>
        <time>2015-11-26T09:11:24+01:00</time>
      </trkpt>
      <trkpt lat="48.98929" lon="-0.48177">
        <ele>25</ele>
        <time>2015-11-26T09:11:29+01:00</time>
      </trkpt>
      <trkpt lat="48.98868" lon="-0.48172">
        <ele>28</ele>
        <time>2015-11-26T09:11:34+01:00</time>
      </trkpt>
      <trkpt lat="48.98814" lon="-0.48057">
        <ele>35</ele>
        <time>2015-11-26T09:11:39+01:00</time>
      </trkpt>
      <trkpt lat="48.98773" lon="-0.47968">
        <ele>42</ele>
        <time>2015-11-26T09:11:44+01:00</time>
      </trkpt>
      <trkpt lat="48.98698" lon="-0.479">
        <ele>49</ele>
        <time>2015-11-26T09:11:49+01:00</time>
      </trkpt>
      <trkpt lat="48.98705" lon="-0.47861">
        <ele>49</ele>
        <time>2015-11-26T09:11:54+01:00</time>
      </trkpt>
      <trkpt lat="48.98685" lon="-0.47773">
        <ele>49</ele>
        <time>2015-11-26T09:11:59+01:00</time>
      </trkpt>
      <trkpt lat="48.98689" lon="-0.47731">
        <ele>49</ele>
        <time>2015-11-26T09:12:04+01:00</time>
      </trkpt>
      <trkpt lat="48.98667" lon="-0.47715">
        <ele>51</ele>
        <time>2015-11-26T09:12:09+01:00</time>
      </trkpt>
      <trkpt lat="48.98638" lon="-0.47592">
        <ele>52</ele>
        <time>2015-11-26T09:12:14+01:00</time>
      </trkpt>
      <trkpt lat="48.9866" lon="-0.47566">
        <ele>51</ele>
        <time>2015-11-26T09:12:19+01:00</time>
      </trkpt>
      <trkpt lat="48.98665" lon="-0.47512">
        <ele>49</ele>
        <time>2015-11-26T09:12:24+01:00</time>
      </trkpt>
      <trkpt lat="48.9869" lon="-0.47415">
        <ele>49</ele>
        <time>2015-11-26T09:12:29+01:00</time>
      </trkpt>
      <trkpt lat="48.98712" lon="-0.47394">
        <ele>48</ele>
        <time>2015-11-26T09:12:34+01:00</time>
      </trkpt>
      <trkpt lat="48.98716" lon="-0.47412">
        <ele>46</ele>
        <time>2015-11-26T09:12:39+01:00</time>
      </trkpt>
      <trkpt lat="48.98777" lon="-0.47441">
        <ele>47</ele>
        <time>2015-11-26T09:12:44+01:00</time>
      </trkpt>
      <trkpt lat="48.98805" lon="-0.4736">
        <ele>50</ele>
        <time>2015-11-26T09:12:49+01:00</time>
      </trkpt>
      <trkpt lat="48.9885" lon="-0.4723">
        <ele>52</ele>
        <time>2015-11-26T09:12:54+01:00</time>
      </trkpt>
      <trkpt lat="48.98867" lon="-0.4705">
        <ele>51</ele>
        <time>2015-11-26T09:12:59+01:00</time>
      </trkpt>
      <trkpt lat="48.9889" lon="-0.47021">
        <ele>53</ele>
        <time>2015-11-26T09:13:04+01:00</time>
      </trkpt>
      <trkpt lat="48.98922" lon="-0.47003">
        <ele>57</ele>
        <time>2015-11-26T09:13:09+01:00</time>
      </trkpt>
      <trkpt lat="48.98938" lon="-0.46958">
        <ele>57</ele>
        <time>2015-11-26T09:13:14+01:00</time>
      </trkpt>
      <trkpt lat="48.98947" lon="-0.46909">
        <ele>56</ele>
        <time>2015-11-26T09:13:19+01:00</time>
      </trkpt>
      <trkpt lat="48.98971" lon="-0.46956">
        <ele>66</ele>
        <time>2015-11-26T09:13:24+01:00</time>
      </trkpt>
      <trkpt lat="48.98987" lon="-0.46916">
        <ele>67</ele>
        <time>2015-11-26T09:13:29+01:00</time>
      </trkpt>
      <trkpt lat="48.99007" lon="-0.46953">
        <ele>74</ele>
        <time>2015-11-26T09:13:34+01:00</time>
      </trkpt>
      <trkpt lat="48.98994" lon="-0.47029">
        <ele>76</ele>
        <time>2015-11-26T09:13:39+01:00</time>
      </trkpt>
      <trkpt lat="48.98983" lon="-0.47084">
        <ele>77</ele>
        <time>2015-11-26T09:13:44+01:00</time>
      </trkpt>
      <trkpt lat="48.98998" lon="-0.4711">
        <ele>80</ele>
        <time>2015-11-26T09:13:49+01:00</time>
      </trkpt>
      <trkpt lat="48.9903" lon="-0.4712">
        <ele>83</ele>
        <time>2015-11-26T09:13:54+01:00</time>
      </trkpt>
      <trkpt lat="48.99106" lon="-0.47138">
        <ele>89</ele>
        <time>2015-11-26T09:13:59+01:00</time>
      </trkpt>
      <trkpt lat="48.99476" lon="-0.47031">
        <ele>93</ele>
        <time>2015-11-26T09:14:04+01:00</time>
      </trkpt>
      <trkpt lat="48.99481" lon="-0.47269">
        <ele>78</ele>
        <time>2015-11-26T09:14:09+01:00</time>
      </trkpt>
      <trkpt lat="48.99528" lon="-0.47266">
        <ele>80</ele>
        <time>2015-11-26T09:14:14+01:00</time>
      </trkpt>
      <trkpt lat="48.99607" lon="-0.47485">
        <ele>57</ele>
        <time>2015-11-26T09:14:19+01:00</time>
      </trkpt>
      <trkpt lat="48.9963" lon="-0.47485">
        <ele>54</ele>
        <time>2015-11-26T09:14:24+01:00</time>
      </trkpt>
      <trkpt lat="48.99661" lon="-0.47467">
        <ele>53</ele>
        <time>2015-11-26T09:14:29+01:00</time>
      </trkpt>
      <trkpt lat="48.99688" lon="-0.47438">
        <ele>52</ele>
        <time>2015-11-26T09:14:34+01:00</time>
      </trkpt>
      <trkpt lat="48.99722" lon="-0.47365">
        <ele>52</ele>
        <time>2015-11-26T09:14:39+01:00</time>
      </trkpt>
      <trkpt lat="48.99806" lon="-0.47162">
        <ele>57</ele>
        <time>2015-11-26T09:14:44+01:00</time>
      </trkpt>
      <trkpt lat="48.99871" lon="-0.47021">
        <ele>56</ele>
        <time>2015-11-26T09:14:49+01:00</time>
      </trkpt>
      <trkpt lat="48.99874" lon="-0.46979">
        <ele>60</ele>
        <time>2015-11-26T09:14:54+01:00</time>
      </trkpt>
      <trkpt lat="48.99896" lon="-0.46903">
        <ele>61</ele>
        <time>2015-11-26T09:14:59+01:00</time>
      </trkpt>
      <trkpt lat="48.99918" lon="-0.46846">
        <ele>65</ele>
        <time>2015-11-26T09:15:04+01:00</time>
      </trkpt>
      <trkpt lat="48.99966" lon="-0.4677">
        <ele>59</ele>
        <time>2015-11-26T09:15:09+01:00</time>
      </trkpt>
      <trkpt lat="49.00002" lon="-0.4671">
        <ele>56</ele>
        <time>2015-11-26T09:15:14+01:00</time>
      </trkpt>
      <trkpt lat="49.00031" lon="-0.46697">
        <ele>49</ele>
        <time>2015-11-26T09:15:19+01:00</time>
      </trkpt>
      <trkpt lat="49.00185" lon="-0.46517">
        <ele>46</ele>
        <time>2015-11-26T09:15:24+01:00</time>
      </trkpt>
      <trkpt lat="49.0018" lon="-0.46488">
        <ele>55</ele>
        <time>2015-11-26T09:15:29+01:00</time>
      </trkpt>
      <trkpt lat="49.0016" lon="-0.46481">
        <ele>62</ele>
        <time>2015-11-26T09:15:34+01:00</time>
      </trkpt>
      <trkpt lat="49.00173" lon="-0.4646">
        <ele>64</ele>
        <time>2015-11-26T09:15:39+01:00</time>
      </trkpt>
      <trkpt lat="49.00207" lon="-0.46436">
        <ele>66</ele>
        <time>2015-11-26T09:15:44+01:00</time>
      </trkpt>
      <trkpt lat="49.00198" lon="-0.46421">
        <ele>72</ele>
        <time>2015-11-26T09:15:49+01:00</time>
      </trkpt>
      <trkpt lat="49.00225" lon="-0.46415">
        <ele>70</ele>
        <time>2015-11-26T09:15:54+01:00</time>
      </trkpt>
      <trkpt lat="49.0021" lon="-0.46384">
        <ele>82</ele>
        <time>2015-11-26T09:15:59+01:00</time>
      </trkpt>
      <trkpt lat="49.00239" lon="-0.46366">
        <ele>86</ele>
        <time>2015-11-26T09:16:04+01:00</time>
      </trkpt>
      <trkpt lat="49.0023" lon="-0.46329">
        <ele>98</ele>
        <time>2015-11-26T09:16:09+01:00</time>
      </trkpt>
      <trkpt lat="49.00207" lon="-0.46316">
        <ele>100</ele>
        <time>2015-11-26T09:16:14+01:00</time>
      </trkpt>
      <trkpt lat="49.00174" lon="-0.46347">
        <ele>94</ele>
        <time>2015-11-26T09:16:19+01:00</time>
      </trkpt>
      <trkpt lat="49.00153" lon="-0.46308">
        <ele>104</ele>
        <time>2015-11-26T09:16:24+01:00</time>
      </trkpt>
      <trkpt lat="49.00164" lon="-0.46243">
        <ele>114</ele>
        <time>2015-11-26T09:16:29+01:00</time>
      </trkpt>
      <trkpt lat="49.00196" lon="-0.4623">
        <ele>114</ele>
        <time>2015-11-26T09:16:34+01:00</time>
      </trkpt>
      <trkpt lat="49.00259" lon="-0.46295">
        <ele>104</ele>
        <time>2015-11-26T09:16:39+01:00</time>
      </trkpt>
      <trkpt lat="49.00313" lon="-0.46298">
        <ele>101</ele>
        <time>2015-11-26T09:16:44+01:00</time>
      </trkpt>
      <trkpt lat="49.00343" lon="-0.46301">
        <ele>99</ele>
        <time>2015-11-26T09:16:49+01:00</time>
      </trkpt>
      <trkpt lat="49.00351" lon="-0.46306">
        <ele>98</ele>
        <time>2015-11-26T09:16:54+01:00</time>
      </trkpt>
      <trkpt lat="49.00372" lon="-0.46303">
        <ele>98</ele>
        <time>2015-11-26T09:16:59+01:00</time>
      </trkpt>
      <trkpt lat="49.00404" lon="-0.46324">
        <ele>95</ele>
        <time>2015-11-26T09:17:04+01:00</time>
      </trkpt>
      <trkpt lat="49.00413" lon="-0.4634">
        <ele>92</ele>
        <time>2015-11-26T09:17:09+01:00</time>
      </trkpt>
      <trkpt lat="49.0043" lon="-0.46345">
        <ele>90</ele>
        <time>2015-11-26T09:17:14+01:00</time>
      </trkpt>
      <trkpt lat="49.00496" lon="-0.46413">
        <ele>74</ele>
        <time>2015-11-26T09:17:19+01:00</time>
      </trkpt>
      <trkpt lat="49.005" lon="-0.46428">
        <ele>70</ele>
        <time>2015-11-26T09:17:24+01:00</time>
      </trkpt>
      <trkpt lat="49.00512" lon="-0.46431">
        <ele>70</ele>
        <time>2015-11-26T09:17:29+01:00</time>
      </trkpt>
      <trkpt lat="49.00536" lon="-0.46473">
        <ele>62</ele>
        <time>2015-11-26T09:17:34+01:00</time>
      </trkpt>
      <trkpt lat="49.0055" lon="-0.4647">
        <ele>64</ele>
        <time>2015-11-26T09:17:39+01:00</time>
      </trkpt>
      <trkpt lat="49.0057" lon="-0.46486">
        <ele>65</ele>
        <time>2015-11-26T09:17:44+01:00</time>
      </trkpt>
      <trkpt lat="49.00588" lon="-0.46475">
        <ele>69</ele>
        <time>2015-11-26T09:17:49+01:00</time>
      </trkpt>
      <trkpt lat="49.00588" lon="-0.46488">
        <ele>67</ele>
        <time>2015-11-26T09:17:54+01:00</time>
      </trkpt>
      <trkpt lat="49.00588" lon="-0.46504">
        <ele>65</ele>
        <time>2015-11-26T09:17:59+01:00</time>
      </trkpt>
      <trkpt lat="49.00615" lon="-0.46603">
        <ele>47</ele>
        <time>2015-11-26T09:18:04+01:00</time>
      </trkpt>
      <trkpt lat="49.00629" lon="-0.46663">
        <ele>41</ele>
        <time>2015-11-26T09:18:09+01:00</time>
      </trkpt>
      <trkpt lat="49.00667" lon="-0.46736">
        <ele>48</ele>
        <time>2015-11-26T09:18:14+01:00</time>
      </trkpt>
      <trkpt lat="49.00676" lon="-0.46786">
        <ele>36</ele>
        <time>2015-11-26T09:18:19+01:00</time>
      </trkpt>
      <trkpt lat="49.00699" lon="-0.46859">
        <ele>31</ele>
        <time>2015-11-26T09:18:24+01:00</time>
      </trkpt>
      <trkpt lat="49.0074" lon="-0.4689">
        <ele>33</ele>
        <time>2015-11-26T09:18:29+01:00</time>
      </trkpt>
      <trkpt lat="49.00749" lon="-0.46937">
        <ele>29</ele>
        <time>2015-11-26T09:18:34+01:00</time>
      </trkpt>
      <trkpt lat="49.00762" lon="-0.46945">
        <ele>30</ele>
        <time>2015-11-26T09:18:39+01:00</time>
      </trkpt>
      <trkpt lat="49.00773" lon="-0.46935">
        <ele>32</ele>
        <time>2015-11-26T09:18:44+01:00</time>
      </trkpt>
      <trkpt lat="49.0078" lon="-0.46862">
        <ele>41</ele>
        <time>2015-11-26T09:18:49+01:00</time>
      </trkpt>
      <trkpt lat="49.00757" lon="-0.46838">
        <ele>41</ele>
        <time>2015-11-26T09:18:54+01:00</time>
      </trkpt>
      <trkpt lat="49.0076" lon="-0.46783">
        <ele>47</ele>
        <time>2015-11-26T09:18:59+01:00</time>
      </trkpt>
      <trkpt lat="49.00782" lon="-0.46765">
        <ele>52</ele>
        <time>2015-11-26T09:19:04+01:00</time>
      </trkpt>
      <trkpt lat="49.00782" lon="-0.46755">
        <ele>53</ele>
        <time>2015-11-26T09:19:09+01:00</time>
      </trkpt>
      <trkpt lat="49.00753" lon="-0.46749">
        <ele>49</ele>
        <time>2015-11-26T09:19:14+01:00</time>
      </trkpt>
      <trkpt lat="49.00751" lon="-0.46731">
        <ele>52</ele>
        <time>2015-11-26T09:19:19+01:00</time>
      </trkpt>
      <trkpt lat="49.0078" lon="-0.467">
        <ele>58</ele>
        <time>2015-11-26T09:19:24+01:00</time>
      </trkpt>
      <trkpt lat="49.00807" lon="-0.46695">
        <ele>61</ele>
        <time>2015-11-26T09:19:29+01:00</time>
      </trkpt>
      <trkpt lat="49.00816" lon="-0.46723">
        <ele>60</ele>
        <time>2015-11-26T09:19:34+01:00</time>
      </trkpt>
      <trkpt lat="49.00819" lon="-0.46791">
        <ele>55</ele>
        <time>2015-11-26T09:19:39+01:00</time>
      </trkpt>
      <trkpt lat="49.00837" lon="-0.46841">
        <ele>52</ele>
        <time>2015-11-26T09:19:44+01:00</time>
      </trkpt>
      <trkpt lat="49.00859" lon="-0.46864">
        <ele>49</ele>
        <time>2015-11-26T09:19:49+01:00</time>
      </trkpt>
      <trkpt lat="49.00917" lon="-0.46869">
        <ele>49</ele>
        <time>2015-11-26T09:19:54+01:00</time>
      </trkpt>
      <trkpt lat="49.00963" lon="-0.4683">
        <ele>50</ele>
        <time>2015-11-26T09:19:59+01:00</time>
      </trkpt>
      <trkpt lat="49.00996" lon="-0.46807">
        <ele>51</ele>
        <time>2015-11-26T09:20:04+01:00</time>
      </trkpt>
      <trkpt lat="49.01008" lon="-0.46757">
        <ele>54</ele>
        <time>2015-11-26T09:20:09+01:00</time>
      </trkpt>
      <trkpt lat="49.0103" lon="-0.46765">
        <ele>52</ele>
        <time>2015-11-26T09:20:14+01:00</time>
      </trkpt>
      <trkpt lat="49.01048" lon="-0.46747">
        <ele>52</ele>
        <time>2015-11-26T09:20:19+01:00</time>
      </trkpt>
      <trkpt lat="49.01102" lon="-0.46747">
        <ele>50</ele>
        <time>2015-11-26T09:20:24+01:00</time>
      </trkpt>
      <trkpt lat="49.01215" lon="-0.4676">
        <ele>46</ele>
        <time>2015-11-26T09:20:29+01:00</time>
      </trkpt>
      <trkpt lat="49.01323" lon="-0.46734">
        <ele>47</ele>
        <time>2015-11-26T09:20:34+01:00</time>
      </trkpt>
      <trkpt lat="49.01526" lon="-0.46684">
        <ele>43</ele>
        <time>2015-11-26T09:20:39+01:00</time>
      </trkpt>
      <trkpt lat="49.01585" lon="-0.46629">
        <ele>45</ele>
        <time>2015-11-26T09:20:44+01:00</time>
      </trkpt>
      <trkpt lat="49.01675" lon="-0.46454">
        <ele>60</ele>
        <time>2015-11-26T09:20:49+01:00</time>
      </trkpt>
      <trkpt lat="49.01693" lon="-0.46454">
        <ele>59</ele>
        <time>2015-11-26T09:20:54+01:00</time>
      </trkpt>
      <trkpt lat="49.01833" lon="-0.46387">
        <ele>50</ele>
        <time>2015-11-26T09:20:59+01:00</time>
      </trkpt>
      <trkpt lat="49.01799" lon="-0.46217">
        <ele>57</ele>
        <time>2015-11-26T09:21:04+01:00</time>
      </trkpt>
      <trkpt lat="49.01799" lon="-0.46186">
        <ele>57</ele>
        <time>2015-11-26T09:21:09+01:00</time>
      </trkpt>
      <trkpt lat="49.01793" lon="-0.46144">
        <ele>58</ele>
        <time>2015-11-26T09:21:14+01:00</time>
      </trkpt>
      <trkpt lat="49.01806" lon="-0.46123">
        <ele>55</ele>
        <time>2015-11-26T09:21:19+01:00</time>
      </trkpt>
      <trkpt lat="49.01815" lon="-0.46207">
        <ele>53</ele>
        <time>2015-11-26T09:21:24+01:00</time>
      </trkpt>
      <trkpt lat="49.01854" lon="-0.46306">
        <ele>50</ele>
        <time>2015-11-26T09:21:29+01:00</time>
      </trkpt>
      <trkpt lat="49.01894" lon="-0.46376">
        <ele>44</ele>
        <time>2015-11-26T09:21:34+01:00</time>
      </trkpt>
      <trkpt lat="49.01923" lon="-0.46392">
        <ele>41</ele>
        <time>2015-11-26T09:21:39+01:00</time>
      </trkpt>
      <trkpt lat="49.01946" lon="-0.46481">
        <ele>34</ele>
        <time>2015-11-26T09:21:44+01:00</time>
      </trkpt>
      <trkpt lat="49.01987" lon="-0.46509">
        <ele>32</ele>
        <time>2015-11-26T09:21:49+01:00</time>
      </trkpt>
      <trkpt lat="49.02009" lon="-0.46517">
        <ele>31</ele>
        <time>2015-11-26T09:21:54+01:00</time>
      </trkpt>
      <trkpt lat="49.02075" lon="-0.4653">
        <ele>31</ele>
        <time>2015-11-26T09:21:59+01:00</time>
      </trkpt>
      <trkpt lat="49.02142" lon="-0.46515">
        <ele>35</ele>
        <time>2015-11-26T09:22:04+01:00</time>
      </trkpt>
      <trkpt lat="49.02305" lon="-0.46481">
        <ele>34</ele>
        <time>2015-11-26T09:22:09+01:00</time>
      </trkpt>
      <trkpt lat="49.02453" lon="-0.46457">
        <ele>30</ele>
        <time>2015-11-26T09:22:14+01:00</time>
      </trkpt>
      <trkpt lat="49.02541" lon="-0.46434">
        <ele>28</ele>
        <time>2015-11-26T09:22:19+01:00</time>
      </trkpt>
      <trkpt lat="49.02575" lon="-0.46408">
        <ele>29</ele>
        <time>2015-11-26T09:22:24+01:00</time>
      </trkpt>
      <trkpt lat="49.02584" lon="-0.4634">
        <ele>35</ele>
        <time>2015-11-26T09:22:29+01:00</time>
      </trkpt>
      <trkpt lat="49.02586" lon="-0.46295">
        <ele>37</ele>
        <time>2015-11-26T09:22:34+01:00</time>
      </trkpt>
      <trkpt lat="49.02602" lon="-0.46314">
        <ele>38</ele>
        <time>2015-11-26T09:22:39+01:00</time>
      </trkpt>
      <trkpt lat="49.02604" lon="-0.46371">
        <ele>33</ele>
        <time>2015-11-26T09:22:44+01:00</time>
      </trkpt>
      <trkpt lat="49.0263" lon="-0.46314">
        <ele>42</ele>
        <time>2015-11-26T09:22:49+01:00</time>
      </trkpt>
      <trkpt lat="49.02638" lon="-0.4628">
        <ele>44</ele>
        <time>2015-11-26T09:22:54+01:00</time>
      </trkpt>
      <trkpt lat="49.02672" lon="-0.46225">
        <ele>50</ele>
        <time>2015-11-26T09:22:59+01:00</time>
      </trkpt>
      <trkpt lat="49.0269" lon="-0.46084">
        <ele>57</ele>
        <time>2015-11-26T09:23:04+01:00</time>
      </trkpt>
      <trkpt lat="49.02704" lon="-0.46013">
        <ele>61</ele>
        <time>2015-11-26T09:23:09+01:00</time>
      </trkpt>
      <trkpt lat="49.02728" lon="-0.45912">
        <ele>66</ele>
        <time>2015-11-26T09:23:14+01:00</time>
      </trkpt>
      <trkpt lat="49.02747" lon="-0.45846">
        <ele>67</ele>
        <time>2015-11-26T09:23:19+01:00</time>
      </trkpt>
      <trkpt lat="49.02916" lon="-0.45807">
        <ele>78</ele>
        <time>2015-11-26T09:23:24+01:00</time>
      </trkpt>
      <trkpt lat="49.03126" lon="-0.45758">
        <ele>72</ele>
        <time>2015-11-26T09:23:29+01:00</time>
      </trkpt>
      <trkpt lat="49.03178" lon="-0.45745">
        <ele>69</ele>
        <time>2015-11-26T09:23:34+01:00</time>
      </trkpt>
      <trkpt lat="49.03207" lon="-0.45742">
        <ele>67</ele>
        <time>2015-11-26T09:23:39+01:00</time>
      </trkpt>
      <trkpt lat="49.032" lon="-0.45836">
        <ele>65</ele>
        <time>2015-11-26T09:23:44+01:00</time>
      </trkpt>
      <trkpt lat="49.03209" lon="-0.45878">
        <ele>63</ele>
        <time>2015-11-26T09:23:49+01:00</time>
      </trkpt>
      <trkpt lat="49.03245" lon="-0.45959">
        <ele>58</ele>
        <time>2015-11-26T09:23:54+01:00</time>
      </trkpt>
      <trkpt lat="49.03256" lon="-0.46013">
        <ele>55</ele>
        <time>2015-11-26T09:23:59+01:00</time>
      </trkpt>
      <trkpt lat="49.03275" lon="-0.46274">
        <ele>48</ele>
        <time>2015-11-26T09:24:04+01:00</time>
      </trkpt>
      <trkpt lat="49.03275" lon="-0.46319">
        <ele>46</ele>
        <time>2015-11-26T09:24:09+01:00</time>
      </trkpt>
      <trkpt lat="49.03326" lon="-0.46379">
        <ele>41</ele>
        <time>2015-11-26T09:24:14+01:00</time>
      </trkpt>
      <trkpt lat="49.03337" lon="-0.46436">
        <ele>36</ele>
        <time>2015-11-26T09:24:19+01:00</time>
      </trkpt>
      <trkpt lat="49.03311" lon="-0.46642">
        <ele>20</ele>
        <time>2015-11-26T09:24:24+01:00</time>
      </trkpt>
      <trkpt lat="49.03304" lon="-0.46742">
        <ele>26</ele>
        <time>2015-11-26T09:24:29+01:00</time>
      </trkpt>
    </trkseg>
  </trk>
</gpx>